Wetterdaten: Woche 14.10.13 - 20.10.13 (KW42)
Datum Zeit Temp. Aussen +5cm Feuchte Auss Luftdruck Regen Sonnenschein Regendauer UV Solar Windben
14.10.2013 00:00 9,3 C 8,0 C 87 % 1014,7 hPa 0,0 l/m 0,00 h 0,00 h 0,0 UV-I 0 W/m 15,3 km/h (3 Bft)
14.10.2013 01:00 9,0 C 7,8 C 87 % 1014,5 hPa 0,0 l/m 0,00 h 0,00 h 0,0 UV-I 0 W/m 14,5 km/h (3 Bft)
14.10.2013 02:00 8,6 C 7,3 C 88 % 1014,3 hPa 0,0 l/m 0,00 h 0,00 h 0,0 UV-I 0 W/m 12,6 km/h (3 Bft)
14.10.2013 03:00 8,1 C 7,1 C 90 % 1014,3 hPa 0,0 l/m 0,00 h 0,00 h 0,0 UV-I 0 W/m 12,5 km/h (3 Bft)
14.10.2013 04:00 8,2 C 7,2 C 90 % 1014,1 hPa 0,0 l/m 0,00 h 0,00 h 0,0 UV-I 0 W/m 12,7 km/h (3 Bft)
14.10.2013 05:00 8,3 C 7,2 C 90 % 1014,0 hPa 0,0 l/m 0,00 h 0,00 h 0,0 UV-I 0 W/m 13,3 km/h (3 Bft)
14.10.2013 06:00 8,1 C 7,0 C 90 % 1013,9 hPa 0,0 l/m 0,00 h 0,00 h 0,0 UV-I 0 W/m 12,0 km/h (2 Bft)
14.10.2013 07:00 8,0 C 6,9 C 92 % 1013,9 hPa 0,0 l/m 0,00 h 0,00 h 0,0 UV-I 0 W/m 13,1 km/h (3 Bft)
14.10.2013 08:00 8,4 C 7,4 C 91 % 1014,2 hPa 0,0 l/m 0,00 h 0,00 h 0,0 UV-I 16 W/m 13,2 km/h (3 Bft)
14.10.2013 09:00 9,0 C 8,1 C 89 % 1014,3 hPa 0,0 l/m 0,00 h 0,00 h 0,0 UV-I 66 W/m 18,0 km/h (3 Bft)
14.10.2013 10:00 9,7 C 9,1 C 88 % 1014,3 hPa 0,0 l/m 0,00 h 0,00 h 0,0 UV-I 107 W/m 18,1 km/h (3 Bft)
14.10.2013 11:00 10,7 C 10,3 C 87 % 1014,1 hPa 0,0 l/m 0,13 h 0,00 h 0,6 UV-I 197 W/m 17,6 km/h (3 Bft)
14.10.2013 12:00 12,2 C 11,8 C 83 % 1013,8 hPa 0,0 l/m 0,17 h 0,00 h 0,6 UV-I 254 W/m 20,1 km/h (4 Bft)
14.10.2013 13:00 13,6 C 12,9 C 80 % 1013,4 hPa 0,0 l/m 0,00 h 0,13 h 0,5 UV-I 219 W/m 15,4 km/h (3 Bft)
14.10.2013 14:00 13,8 C 13,0 C 77 % 1013,1 hPa 0,0 l/m 0,00 h 0,07 h 0,5 UV-I 167 W/m 15,7 km/h (3 Bft)
14.10.2013 15:00 14,0 C 13,0 C 78 % 1012,7 hPa 0,0 l/m 0,00 h 0,00 h 0,0 UV-I 156 W/m 14,6 km/h (3 Bft)
14.10.2013 16:00 13,9 C 12,8 C 78 % 1012,2 hPa 0,0 l/m 0,00 h 0,00 h 0,0 UV-I 122 W/m 16,2 km/h (3 Bft)
14.10.2013 17:00 13,4 C 12,1 C 81 % 1011,7 hPa 0,0 l/m 0,00 h 0,00 h 0,0 UV-I 48 W/m 12,8 km/h (3 Bft)
14.10.2013 18:00 12,4 C 10,8 C 84 % 1011,2 hPa 0,0 l/m 0,00 h 0,07 h 0,0 UV-I 14 W/m 8,6 km/h (2 Bft)
14.10.2013 19:00 12,2 C 10,6 C 88 % 1010,8 hPa 0,0 l/m 0,00 h 0,33 h 0,0 UV-I 0 W/m 15,9 km/h (3 Bft)
14.10.2013 20:00 11,9 C 10,5 C 93 % 1010,6 hPa 0,0 l/m 0,00 h 0,13 h 0,0 UV-I 0 W/m 21,6 km/h (4 Bft)
14.10.2013 21:00 11,6 C 10,3 C 95 % 1010,0 hPa 0,0 l/m 0,00 h 0,00 h 0,0 UV-I 0 W/m 14,1 km/h (3 Bft)
14.10.2013 22:00 11,6 C 10,6 C 96 % 1009,5 hPa 0,0 l/m 0,00 h 0,00 h 0,0 UV-I 0 W/m 15,3 km/h (3 Bft)
14.10.2013 23:00 11,4 C 10,2 C 96 % 1009,0 hPa 0,0 l/m 0,00 h 0,00 h 0,0 UV-I 0 W/m 15,0 km/h (3 Bft)
15.10.2013 00:00 11,2 C 9,8 C 96 % 1008,6 hPa 0,2 l/m 0,00 h 0,60 h 0,0 UV-I 0 W/m 6,8 km/h (2 Bft)
15.10.2013 01:00 10,8 C 9,3 C 97 % 1008,5 hPa 0,0 l/m 0,00 h 0,27 h 0,0 UV-I 0 W/m 2,6 km/h (1 Bft)
15.10.2013 02:00 10,3 C 8,7 C 97 % 1008,6 hPa 0,0 l/m 0,00 h 0,00 h 0,0 UV-I 0 W/m 1,5 km/h (1 Bft)
15.10.2013 03:00 9,4 C 7,8 C 96 % 1008,3 hPa 0,0 l/m 0,00 h 0,00 h 0,0 UV-I 0 W/m 2,2 km/h (1 Bft)
15.10.2013 04:00 9,3 C 7,7 C 95 % 1008,0 hPa 0,0 l/m 0,00 h 0,00 h 0,0 UV-I 0 W/m 3,0 km/h (1 Bft)
15.10.2013 05:00 9,3 C 7,7 C 94 % 1007,9 hPa 0,0 l/m 0,00 h 0,00 h 0,0 UV-I 0 W/m 5,2 km/h (1 Bft)
15.10.2013 06:00 9,0 C 7,7 C 95 % 1007,7 hPa 0,2 l/m 0,00 h 0,17 h 0,0 UV-I 0 W/m 2,6 km/h (1 Bft)
15.10.2013 07:00 9,3 C 7,8 C 95 % 1007,5 hPa 0,0 l/m 0,00 h 0,10 h 0,0 UV-I 0 W/m 1,7 km/h (1 Bft)
15.10.2013 08:00 9,3 C 7,8 C 95 % 1007,5 hPa 0,8 l/m 0,00 h 0,47 h 0,0 UV-I 12 W/m 1,8 km/h (1 Bft)
15.10.2013 09:00 9,5 C 8,3 C 96 % 1007,5 hPa 0,0 l/m 0,00 h 0,07 h 0,0 UV-I 33 W/m 3,6 km/h (1 Bft)
15.10.2013 10:00 9,8 C 8,2 C 95 % 1007,2 hPa 2,8 l/m 0,00 h 0,80 h 0,0 UV-I 30 W/m 8,2 km/h (2 Bft)
15.10.2013 11:00 9,4 C 8,5 C 96 % 1007,4 hPa 0,4 l/m 0,00 h 0,63 h 0,0 UV-I 101 W/m 4,3 km/h (1 Bft)
15.10.2013 12:00 10,1 C 8,9 C 96 % 1007,5 hPa 0,2 l/m 0,00 h 0,30 h 0,0 UV-I 81 W/m 5,8 km/h (2 Bft)
15.10.2013 13:00 9,8 C 8,7 C 96 % 1007,3 hPa 0,4 l/m 0,00 h 0,47 h 0,0 UV-I 96 W/m 6,1 km/h (2 Bft)
15.10.2013 14:00 10,2 C 9,1 C 95 % 1007,3 hPa 0,0 l/m 0,00 h 0,00 h 0,0 UV-I 94 W/m 9,5 km/h (2 Bft)
15.10.2013 15:00 9,8 C 8,7 C 94 % 1007,2 hPa 0,6 l/m 0,00 h 0,63 h 0,0 UV-I 56 W/m 6,7 km/h (2 Bft)
15.10.2013 16:00 10,3 C 9,2 C 95 % 1007,1 hPa 0,0 l/m 0,27 h 0,07 h 0,0 UV-I 147 W/m 3,6 km/h (1 Bft)
15.10.2013 17:00 11,0 C 9,3 C 92 % 1006,8 hPa 0,0 l/m 0,10 h 0,00 h 0,0 UV-I 67 W/m 3,4 km/h (1 Bft)
15.10.2013 18:00 10,6 C 8,7 C 91 % 1006,8 hPa 0,0 l/m 0,00 h 0,00 h 0,0 UV-I 18 W/m 3,5 km/h (1 Bft)
15.10.2013 19:00 10,1 C 8,3 C 92 % 1007,1 hPa 0,0 l/m 0,00 h 0,00 h 0,0 UV-I 0 W/m 1,5 km/h (1 Bft)
15.10.2013 20:00 9,7 C 8,3 C 93 % 1007,2 hPa 2,0 l/m 0,00 h 0,70 h 0,0 UV-I 0 W/m 0,0 km/h (0 Bft)
15.10.2013 21:00 9,3 C 8,2 C 96 % 1007,4 hPa 4,2 l/m 0,00 h 0,97 h 0,0 UV-I 0 W/m 0,3 km/h (0 Bft)
15.10.2013 22:00 9,2 C 8,2 C 98 % 1007,8 hPa 0,2 l/m 0,00 h 0,47 h 0,0 UV-I 0 W/m 0,1 km/h (0 Bft)
15.10.2013 23:00 9,0 C 7,9 C 98 % 1008,3 hPa 0,0 l/m 0,00 h 0,00 h 0,0 UV-I 0 W/m 0,0 km/h (0 Bft)
16.10.2013 00:00 8,9 C 7,7 C 98 % 1009,2 hPa 0,0 l/m 0,00 h 0,00 h 0,0 UV-I 0 W/m 0,0 km/h (0 Bft)
16.10.2013 01:00 8,9 C 7,8 C 99 % 1009,8 hPa 0,0 l/m 0,00 h 0,00 h 0,0 UV-I 0 W/m 4,6 km/h (1 Bft)
16.10.2013 02:00 8,9 C 7,8 C 99 % 1010,6 hPa 0,0 l/m 0,00 h 0,00 h 0,0 UV-I 0 W/m 1,7 km/h (1 Bft)
16.10.2013 03:00 8,6 C 7,8 C 99 % 1011,2 hPa 0,0 l/m 0,00 h 0,00 h 0,0 UV-I 0 W/m 1,1 km/h (0 Bft)
16.10.2013 04:00 8,3 C 7,4 C 99 % 1011,7 hPa 0,0 l/m 0,00 h 0,00 h 0,0 UV-I 0 W/m 0,4 km/h (0 Bft)
16.10.2013 05:00 8,2 C 7,2 C 99 % 1012,3 hPa 0,0 l/m 0,00 h 0,00 h 0,0 UV-I 0 W/m 0,3 km/h (0 Bft)
16.10.2013 06:00 8,0 C 7,2 C 99 % 1012,7 hPa 0,0 l/m 0,00 h 0,00 h 0,0 UV-I 0 W/m 0,7 km/h (0 Bft)
16.10.2013 07:00 7,9 C 7,2 C 99 % 1013,1 hPa 0,0 l/m 0,00 h 0,00 h 0,0 UV-I 0 W/m 0,4 km/h (0 Bft)
16.10.2013 08:00 7,9 C 7,2 C 99 % 1013,4 hPa 0,0 l/m 0,00 h 0,00 h 0,0 UV-I 9 W/m 2,8 km/h (1 Bft)
16.10.2013 09:00 8,2 C 7,3 C 99 % 1014,2 hPa 0,0 l/m 0,00 h 0,00 h 0,0 UV-I 27 W/m 2,8 km/h (1 Bft)
16.10.2013 10:00 8,8 C 8,3 C 98 % 1014,3 hPa 0,0 l/m 0,00 h 0,00 h 0,0 UV-I 95 W/m 2,7 km/h (1 Bft)
16.10.2013 11:00 9,7 C 9,4 C 97 % 1014,3 hPa 0,0 l/m 0,00 h 0,00 h 0,5 UV-I 148 W/m 1,8 km/h (1 Bft)
16.10.2013 12:00 10,2 C 9,9 C 95 % 1014,4 hPa 0,0 l/m 0,03 h 0,00 h 0,7 UV-I 156 W/m 2,5 km/h (1 Bft)
16.10.2013 13:00 11,5 C 11,1 C 91 % 1014,0 hPa 0,0 l/m 0,50 h 0,00 h 0,9 UV-I 260 W/m 1,3 km/h (1 Bft)
16.10.2013 14:00 11,8 C 11,5 C 91 % 1013,7 hPa 0,0 l/m 0,00 h 0,00 h 0,5 UV-I 162 W/m 1,0 km/h (0 Bft)
16.10.2013 15:00 12,5 C 12,0 C 89 % 1013,5 hPa 0,0 l/m 0,00 h 0,00 h 0,0 UV-I 158 W/m 0,4 km/h (0 Bft)
16.10.2013 16:00 12,6 C 11,8 C 89 % 1012,7 hPa 0,0 l/m 0,00 h 0,00 h 0,0 UV-I 86 W/m 2,3 km/h (1 Bft)
16.10.2013 17:00 11,9 C 10,7 C 91 % 1011,9 hPa 0,0 l/m 0,00 h 0,00 h 0,0 UV-I 45 W/m 2,9 km/h (1 Bft)
16.10.2013 18:00 11,4 C 10,1 C 92 % 1011,8 hPa 0,0 l/m 0,00 h 0,00 h 0,0 UV-I 9 W/m 0,6 km/h (0 Bft)
16.10.2013 19:00 10,9 C 9,4 C 93 % 1011,4 hPa 0,0 l/m 0,00 h 0,00 h 0,0 UV-I 0 W/m 0,4 km/h (0 Bft)
16.10.2013 20:00 10,9 C 9,6 C 94 % 1010,9 hPa 0,0 l/m 0,00 h 0,00 h 0,0 UV-I 0 W/m 1,5 km/h (1 Bft)
16.10.2013 21:00 11,0 C 9,4 C 92 % 1010,7 hPa 0,0 l/m 0,00 h 0,37 h 0,0 UV-I 0 W/m 4,3 km/h (1 Bft)
16.10.2013 22:00 10,9 C 9,4 C 92 % 1010,4 hPa 0,0 l/m 0,00 h 0,10 h 0,0 UV-I 0 W/m 6,7 km/h (2 Bft)
16.10.2013 23:00 10,5 C 9,3 C 95 % 1010,6 hPa 0,2 l/m 0,00 h 0,27 h 0,0 UV-I 0 W/m 5,8 km/h (2 Bft)
17.10.2013 00:00 10,5 C 9,4 C 97 % 1010,5 hPa 0,0 l/m 0,00 h 0,00 h 0,0 UV-I 0 W/m 3,7 km/h (1 Bft)
17.10.2013 01:00 11,0 C 9,4 C 97 % 1010,6 hPa 0,0 l/m 0,00 h 0,00 h 0,0 UV-I 0 W/m 7,0 km/h (2 Bft)
17.10.2013 02:00 11,3 C 9,6 C 96 % 1011,1 hPa 0,0 l/m 0,00 h 0,00 h 0,0 UV-I 0 W/m 5,3 km/h (1 Bft)
17.10.2013 03:00 11,2 C 9,5 C 96 % 1011,1 hPa 0,0 l/m 0,00 h 0,00 h 0,0 UV-I 0 W/m 7,4 km/h (2 Bft)
17.10.2013 04:00 11,5 C 10,0 C 97 % 1010,8 hPa 0,0 l/m 0,00 h 0,00 h 0,0 UV-I 0 W/m 8,2 km/h (2 Bft)
17.10.2013 05:00 11,6 C 10,1 C 96 % 1011,0 hPa 0,0 l/m 0,00 h 0,00 h 0,0 UV-I 0 W/m 10,8 km/h (2 Bft)
17.10.2013 06:00 12,2 C 10,8 C 96 % 1011,0 hPa 0,0 l/m 0,00 h 0,00 h 0,0 UV-I 0 W/m 13,8 km/h (3 Bft)
17.10.2013 07:00 12,7 C 11,1 C 94 % 1011,0 hPa 0,0 l/m 0,00 h 0,00 h 0,0 UV-I 0 W/m 11,3 km/h (2 Bft)
17.10.2013 08:00 12,8 C 11,4 C 93 % 1011,2 hPa 0,0 l/m 0,00 h 0,00 h 0,0 UV-I 21 W/m 13,7 km/h (3 Bft)
17.10.2013 09:00 13,3 C 11,9 C 92 % 1011,6 hPa 0,0 l/m 0,00 h 0,00 h 0,0 UV-I 64 W/m 14,9 km/h (3 Bft)
17.10.2013 10:00 14,1 C 12,9 C 89 % 1011,9 hPa 0,0 l/m 0,17 h 0,00 h 0,0 UV-I 141 W/m 17,9 km/h (3 Bft)
17.10.2013 11:00 14,8 C 13,7 C 87 % 1012,0 hPa 0,0 l/m 0,13 h 0,00 h 0,0 UV-I 162 W/m 18,1 km/h (3 Bft)
17.10.2013 12:00 14,9 C 13,5 C 87 % 1011,9 hPa 0,2 l/m 0,17 h 0,40 h 0,6 UV-I 174 W/m 21,0 km/h (4 Bft)
17.10.2013 13:00 14,8 C 12,6 C 89 % 1011,8 hPa 0,0 l/m 0,00 h 0,27 h 0,8 UV-I 142 W/m 20,9 km/h (4 Bft)
17.10.2013 14:00 13,9 C 12,3 C 94 % 1012,0 hPa 0,6 l/m 0,00 h 0,70 h 0,0 UV-I 84 W/m 11,5 km/h (2 Bft)
17.10.2013 15:00 14,2 C 12,7 C 95 % 1012,2 hPa 0,0 l/m 0,13 h 0,03 h 0,5 UV-I 147 W/m 12,0 km/h (2 Bft)
17.10.2013 16:00 14,7 C 12,5 C 92 % 1012,3 hPa 0,0 l/m 0,53 h 0,00 h 0,0 UV-I 153 W/m 11,4 km/h (2 Bft)
17.10.2013 17:00 14,5 C 12,4 C 92 % 1012,8 hPa 0,0 l/m 0,43 h 0,00 h 0,0 UV-I 92 W/m 10,3 km/h (2 Bft)
17.10.2013 18:00 13,3 C 10,5 C 86 % 1013,4 hPa 0,0 l/m 0,00 h 0,00 h 0,0 UV-I 12 W/m 3,3 km/h (1 Bft)
17.10.2013 19:00 11,6 C 9,1 C 90 % 1014,1 hPa 0,0 l/m 0,00 h 0,00 h 0,0 UV-I 0 W/m 0,1 km/h (0 Bft)
17.10.2013 20:00 10,6 C 8,7 C 94 % 1014,7 hPa 0,0 l/m 0,00 h 0,00 h 0,0 UV-I 0 W/m 0,4 km/h (0 Bft)
17.10.2013 21:00 10,2 C 8,2 C 94 % 1015,2 hPa 0,0 l/m 0,00 h 0,00 h 0,0 UV-I 0 W/m 0,6 km/h (0 Bft)
17.10.2013 22:00 10,1 C 8,3 C 95 % 1015,6 hPa 0,0 l/m 0,00 h 0,00 h 0,0 UV-I 0 W/m 0,4 km/h (0 Bft)
17.10.2013 23:00 9,4 C 7,7 C 96 % 1016,0 hPa 0,0 l/m 0,00 h 0,00 h 0,0 UV-I 0 W/m 0,0 km/h (0 Bft)
18.10.2013 00:00 8,9 C 7,2 C 97 % 1016,4 hPa 0,0 l/m 0,00 h 0,00 h 0,0 UV-I 0 W/m 0,0 km/h (0 Bft)
18.10.2013 01:00 8,8 C 7,5 C 98 % 1016,8 hPa 0,0 l/m 0,00 h 0,00 h 0,0 UV-I 0 W/m 0,0 km/h (0 Bft)
18.10.2013 02:00 8,8 C 7,1 C 98 % 1017,0 hPa 0,0 l/m 0,00 h 0,00 h 0,0 UV-I 0 W/m 0,0 km/h (0 Bft)
18.10.2013 03:00 8,2 C 6,9 C 98 % 1016,8 hPa 0,0 l/m 0,00 h 0,00 h 0,0 UV-I 0 W/m 0,0 km/h (0 Bft)
18.10.2013 04:00 9,4 C 8,9 C 99 % 1016,9 hPa 0,0 l/m 0,00 h 0,00 h 0,0 UV-I 0 W/m 0,0 km/h (0 Bft)
18.10.2013 05:00 10,5 C 9,7 C 99 % 1017,2 hPa 0,0 l/m 0,00 h 0,00 h 0,0 UV-I 0 W/m 1,3 km/h (1 Bft)
18.10.2013 06:00 10,8 C 10,0 C 99 % 1017,4 hPa 0,0 l/m 0,00 h 0,00 h 0,0 UV-I 0 W/m 1,1 km/h (1 Bft)
18.10.2013 07:00 10,9 C 10,0 C 99 % 1017,5 hPa 0,0 l/m 0,00 h 0,00 h 0,0 UV-I 0 W/m 0,3 km/h (0 Bft)
18.10.2013 08:00 11,1 C 10,0 C 99 % 1017,8 hPa 0,0 l/m 0,00 h 0,00 h 0,0 UV-I 18 W/m 0,0 km/h (0 Bft)
18.10.2013 09:00 11,4 C 10,7 C 99 % 1018,5 hPa 0,0 l/m 0,00 h 0,00 h 0,0 UV-I 40 W/m 0,0 km/h (0 Bft)
18.10.2013 10:00 12,1 C 11,6 C 100 % 1018,7 hPa 0,0 l/m 0,00 h 0,00 h 0,0 UV-I 77 W/m 0,1 km/h (0 Bft)
18.10.2013 11:00 12,6 C 12,3 C 100 % 1018,8 hPa 0,0 l/m 0,23 h 0,00 h 0,6 UV-I 171 W/m 0,0 km/h (0 Bft)
18.10.2013 12:00 13,4 C 13,1 C 100 % 1018,8 hPa 0,0 l/m 0,03 h 0,00 h 0,0 UV-I 113 W/m 1,2 km/h (1 Bft)
18.10.2013 13:00 14,0 C 14,1 C 99 % 1018,6 hPa 0,0 l/m 0,07 h 0,00 h 0,7 UV-I 223 W/m 1,6 km/h (1 Bft)
18.10.2013 14:00 15,4 C 14,1 C 85 % 1018,2 hPa 0,0 l/m 0,70 h 0,00 h 0,9 UV-I 309 W/m 4,2 km/h (1 Bft)
18.10.2013 15:00 16,3 C 14,4 C 80 % 1017,7 hPa 0,0 l/m 0,90 h 0,00 h 0,6 UV-I 281 W/m 6,3 km/h (2 Bft)
18.10.2013 16:00 15,8 C 14,0 C 81 % 1017,3 hPa 0,2 l/m 0,23 h 0,13 h 0,0 UV-I 128 W/m 2,3 km/h (1 Bft)
18.10.2013 17:00 15,1 C 13,3 C 84 % 1017,0 hPa 0,0 l/m 0,00 h 0,00 h 0,0 UV-I 52 W/m 0,0 km/h (0 Bft)
18.10.2013 18:00 14,0 C 12,1 C 88 % 1016,9 hPa 0,0 l/m 0,00 h 0,00 h 0,0 UV-I 15 W/m 0,1 km/h (0 Bft)
18.10.2013 19:00 12,7 C 10,8 C 92 % 1016,9 hPa 0,0 l/m 0,00 h 0,00 h 0,0 UV-I 0 W/m 0,4 km/h (0 Bft)
18.10.2013 20:00 11,8 C 10,1 C 94 % 1016,7 hPa 0,0 l/m 0,00 h 0,00 h 0,0 UV-I 0 W/m 1,1 km/h (0 Bft)
18.10.2013 21:00 10,8 C 9,0 C 96 % 1016,5 hPa 0,0 l/m 0,00 h 0,00 h 0,0 UV-I 0 W/m 0,1 km/h (0 Bft)
18.10.2013 22:00 10,4 C 9,0 C 97 % 1016,2 hPa 0,0 l/m 0,00 h 0,00 h 0,0 UV-I 0 W/m 0,7 km/h (0 Bft)
18.10.2013 23:00 10,7 C 9,3 C 95 % 1015,8 hPa 0,0 l/m 0,00 h 0,00 h 0,0 UV-I 0 W/m 4,1 km/h (1 Bft)
19.10.2013 00:00 10,6 C 9,3 C 93 % 1015,4 hPa 0,0 l/m 0,00 h 0,00 h 0,0 UV-I 0 W/m 5,6 km/h (1 Bft)
19.10.2013 01:00 10,6 C 9,4 C 92 % 1014,8 hPa 0,0 l/m 0,00 h 0,00 h 0,0 UV-I 0 W/m 5,9 km/h (2 Bft)
19.10.2013 02:00 10,6 C 9,3 C 91 % 1013,9 hPa 0,0 l/m 0,00 h 0,00 h 0,0 UV-I 0 W/m 11,5 km/h (2 Bft)
19.10.2013 03:00 10,4 C 8,9 C 90 % 1012,9 hPa 0,0 l/m 0,00 h 0,00 h 0,0 UV-I 0 W/m 13,0 km/h (3 Bft)
19.10.2013 04:00 10,4 C 8,9 C 88 % 1012,2 hPa 0,0 l/m 0,00 h 0,00 h 0,0 UV-I 0 W/m 17,9 km/h (3 Bft)
19.10.2013 05:00 10,1 C 8,7 C 88 % 1011,9 hPa 0,0 l/m 0,00 h 0,00 h 0,0 UV-I 0 W/m 17,1 km/h (3 Bft)
19.10.2013 06:00 9,7 C 8,2 C 89 % 1011,6 hPa 0,0 l/m 0,00 h 0,00 h 0,0 UV-I 0 W/m 9,9 km/h (2 Bft)
19.10.2013 07:00 9,4 C 7,9 C 90 % 1010,8 hPa 0,0 l/m 0,00 h 0,00 h 0,0 UV-I 0 W/m 10,5 km/h (2 Bft)
19.10.2013 08:00 9,4 C 7,9 C 91 % 1010,6 hPa 0,0 l/m 0,00 h 0,00 h 0,0 UV-I 18 W/m 15,1 km/h (3 Bft)
19.10.2013 09:00 10,3 C 9,2 C 90 % 1010,4 hPa 0,0 l/m 0,73 h 0,00 h 0,0 UV-I 146 W/m 17,6 km/h (3 Bft)
19.10.2013 10:00 12,2 C 10,7 C 86 % 1010,3 hPa 0,0 l/m 0,97 h 0,00 h 0,5 UV-I 260 W/m 20,9 km/h (4 Bft)
19.10.2013 11:00 13,7 C 12,3 C 84 % 1010,2 hPa 0,0 l/m 0,83 h 0,00 h 0,7 UV-I 291 W/m 18,4 km/h (3 Bft)
19.10.2013 12:00 15,5 C 14,3 C 81 % 1009,9 hPa 0,0 l/m 0,97 h 0,00 h 0,9 UV-I 350 W/m 17,2 km/h (3 Bft)
19.10.2013 13:00 16,7 C 15,4 C 79 % 1009,3 hPa 0,0 l/m 0,73 h 0,00 h 1,0 UV-I 319 W/m 14,3 km/h (3 Bft)
19.10.2013 14:00 17,2 C 16,1 C 79 % 1009,0 hPa 0,0 l/m 0,53 h 0,00 h 0,7 UV-I 266 W/m 13,0 km/h (3 Bft)
19.10.2013 15:00 18,0 C 16,9 C 79 % 1008,6 hPa 0,0 l/m 0,47 h 0,00 h 0,5 UV-I 236 W/m 9,0 km/h (2 Bft)
19.10.2013 16:00 18,1 C 16,3 C 82 % 1008,2 hPa 0,0 l/m 0,03 h 0,00 h 0,0 UV-I 97 W/m 1,3 km/h (1 Bft)
19.10.2013 17:00 17,2 C 14,7 C 89 % 1008,1 hPa 0,0 l/m 0,00 h 0,00 h 0,0 UV-I 26 W/m 0,0 km/h (0 Bft)
19.10.2013 18:00 16,4 C 13,9 C 93 % 1008,0 hPa 0,0 l/m 0,00 h 0,07 h 0,0 UV-I 8 W/m 0,0 km/h (0 Bft)
19.10.2013 19:00 17,0 C 14,2 C 90 % 1008,3 hPa 0,0 l/m 0,00 h 0,13 h 0,0 UV-I 0 W/m 2,4 km/h (1 Bft)
19.10.2013 20:00 16,9 C 14,6 C 89 % 1008,6 hPa 0,0 l/m 0,00 h 0,00 h 0,0 UV-I 0 W/m 4,5 km/h (1 Bft)
19.10.2013 21:00 17,5 C 15,2 C 85 % 1009,0 hPa 0,0 l/m 0,00 h 0,00 h 0,0 UV-I 0 W/m 11,9 km/h (2 Bft)
19.10.2013 22:00 17,2 C 15,0 C 86 % 1009,5 hPa 0,0 l/m 0,00 h 0,00 h 0,0 UV-I 0 W/m 7,6 km/h (2 Bft)
19.10.2013 23:00 16,8 C 14,6 C 88 % 1010,1 hPa 0,0 l/m 0,00 h 0,00 h 0,0 UV-I 0 W/m 4,8 km/h (1 Bft)
20.10.2013 00:00 15,9 C 13,2 C 91 % 1010,5 hPa 0,0 l/m 0,00 h 0,00 h 0,0 UV-I 0 W/m 0,3 km/h (0 Bft)
20.10.2013 01:00 14,4 C 12,0 C 95 % 1011,0 hPa 0,0 l/m 0,00 h 0,00 h 0,0 UV-I 0 W/m 0,4 km/h (0 Bft)
20.10.2013 02:00 14,8 C 12,4 C 95 % 1011,1 hPa 0,0 l/m 0,00 h 0,00 h 0,0 UV-I 0 W/m 0,4 km/h (0 Bft)
20.10.2013 03:00 14,9 C 12,7 C 96 % 1011,2 hPa 0,0 l/m 0,00 h 0,00 h 0,0 UV-I 0 W/m 1,3 km/h (1 Bft)
20.10.2013 04:00 15,1 C 12,7 C 95 % 1011,3 hPa 0,0 l/m 0,00 h 0,00 h 0,0 UV-I 0 W/m 2,1 km/h (1 Bft)
20.10.2013 05:00 14,7 C 12,5 C 95 % 1011,2 hPa 0,0 l/m 0,00 h 0,00 h 0,0 UV-I 0 W/m 1,2 km/h (1 Bft)
20.10.2013 06:00 14,3 C 12,3 C 96 % 1011,1 hPa 0,0 l/m 0,00 h 0,00 h 0,0 UV-I 0 W/m 1,0 km/h (0 Bft)
20.10.2013 07:00 14,2 C 12,2 C 96 % 1011,0 hPa 0,0 l/m 0,00 h 0,00 h 0,0 UV-I 0 W/m 0,7 km/h (0 Bft)
20.10.2013 08:00 14,3 C 12,3 C 96 % 1011,2 hPa 0,0 l/m 0,00 h 0,00 h 0,0 UV-I 19 W/m 2,5 km/h (1 Bft)
20.10.2013 09:00 14,5 C 13,1 C 95 % 1011,0 hPa 0,0 l/m 0,00 h 0,00 h 0,0 UV-I 57 W/m 4,7 km/h (1 Bft)
20.10.2013 10:00 15,2 C 14,1 C 93 % 1011,5 hPa 0,0 l/m 0,00 h 0,00 h 0,0 UV-I 96 W/m 7,4 km/h (2 Bft)
20.10.2013 11:00 16,0 C 15,0 C 91 % 1011,9 hPa 0,0 l/m 0,00 h 0,00 h 0,0 UV-I 106 W/m 4,7 km/h (1 Bft)
20.10.2013 12:00 17,1 C 16,2 C 88 % 1011,8 hPa 0,0 l/m 0,00 h 0,07 h 0,6 UV-I 190 W/m 4,1 km/h (1 Bft)
20.10.2013 13:00 18,2 C 17,1 C 81 % 1011,7 hPa 0,0 l/m 0,03 h 0,00 h 0,6 UV-I 189 W/m 9,6 km/h (2 Bft)
20.10.2013 14:00 17,6 C 16,0 C 82 % 1011,6 hPa 0,0 l/m 0,00 h 0,37 h 0,0 UV-I 88 W/m 6,7 km/h (2 Bft)
20.10.2013 15:00 17,5 C 15,4 C 84 % 1011,4 hPa 0,0 l/m 0,03 h 0,60 h 0,0 UV-I 112 W/m 8,2 km/h (2 Bft)
20.10.2013 16:00 18,1 C 16,5 C 82 % 1010,9 hPa 0,0 l/m 0,43 h 0,00 h 0,0 UV-I 157 W/m 6,4 km/h (2 Bft)
20.10.2013 17:00 17,3 C 15,4 C 85 % 1010,7 hPa 0,0 l/m 0,08 h 0,00 h 0,0 UV-I 48 W/m 0,6 km/h (0 Bft)
20.10.2013 18:00 16,7 C 14,7 C 85 % 1010,7 hPa 0,0 l/m 0,00 h 0,00 h 0,0 UV-I 13 W/m 5,3 km/h (1 Bft)
20.10.2013 19:00 16,5 C 14,4 C 83 % 1010,8 hPa 0,0 l/m 0,00 h 0,00 h 0,0 UV-I 0 W/m 8,5 km/h (2 Bft)
20.10.2013 20:00 16,2 C 14,2 C 84 % 1010,8 hPa 0,0 l/m 0,00 h 0,00 h 0,0 UV-I 0 W/m 6,6 km/h (2 Bft)
20.10.2013 21:00 15,9 C 13,9 C 86 % 1010,8 hPa 0,0 l/m 0,00 h 0,27 h 0,0 UV-I 0 W/m 10,7 km/h (2 Bft)
20.10.2013 22:00 16,0 C 13,8 C 85 % 1011,1 hPa 0,0 l/m 0,00 h 0,23 h 0,0 UV-I 0 W/m 14,6 km/h (3 Bft)
20.10.2013 23:00 15,3 C 13,4 C 85 % 1011,7 hPa 0,0 l/m 0,00 h 0,00 h 0,0 UV-I 0 W/m 13,8 km/h (3 Bft)
Min-Datum _ 14.10.13 18.10.13 14.10.13 15.10.13 - - - - - 14.10.13
_ Min-Zeit 07:08 03:05 14:54 18:06 - - - - - 06:20
Minimum _ 7,8 C 6,1 C 76 % 1006,6 hPa - - - - - 0,0 km/h (0 Bft)
Max-Datum _ 20.10.13 19.10.13 18.10.13 18.10.13 15.10.13 14.10.13 14.10.13 17.10.13 19.10.13 17.10.13
_ Max-Zeit 16:26 15:16 09:36 12:32 21:14 11:48 13:40 13:54 13:32 06:36
Maximum _ 18,7 C 17,2 C 100 % 1019,0 hPa 4,2 l/m 0,03 h 0,03 h 1,3 UV-I 513 W/m 41,2 km/h
S-SW (6 Bft)
Durchschnitt _ 12,1 C 10,7 C 92 % 1012,0 hPa #13,2 l/m #10:47 h #11:26 h 0,7 UV-I 116 W/m 6,6 km/h (2 Bft)
© 2013 W. Hausmann